sensor_id;sensor_type;location;lat;lon;timestamp;temperature;humidity
51476;DHT22;37554;50.362;7.568;2023-02-18T00:02:12;16.70;60.40
51476;DHT22;37554;50.362;7.568;2023-02-18T00:04:38;16.70;60.30
51476;DHT22;37554;50.362;7.568;2023-02-18T00:07:04;16.70;60.30
51476;DHT22;37554;50.362;7.568;2023-02-18T00:09:29;16.70;60.30
51476;DHT22;37554;50.362;7.568;2023-02-18T00:11:55;16.70;60.20
51476;DHT22;37554;50.362;7.568;2023-02-18T00:14:20;16.60;60.20
51476;DHT22;37554;50.362;7.568;2023-02-18T00:16:46;16.60;60.30
51476;DHT22;37554;50.362;7.568;2023-02-18T00:19:14;16.60;60.20
51476;DHT22;37554;50.362;7.568;2023-02-18T00:21:40;16.60;60.30
51476;DHT22;37554;50.362;7.568;2023-02-18T00:24:07;16.60;60.30
51476;DHT22;37554;50.362;7.568;2023-02-18T00:26:34;16.60;60.40
51476;DHT22;37554;50.362;7.568;2023-02-18T00:29:00;16.60;60.30
51476;DHT22;37554;50.362;7.568;2023-02-18T00:31:28;16.60;60.40
51476;DHT22;37554;50.362;7.568;2023-02-18T00:33:56;16.60;60.40
51476;DHT22;37554;50.362;7.568;2023-02-18T00:36:22;16.50;60.40
51476;DHT22;37554;50.362;7.568;2023-02-18T00:38:53;16.60;60.50
51476;DHT22;37554;50.362;7.568;2023-02-18T00:41:20;16.50;60.40
51476;DHT22;37554;50.362;7.568;2023-02-18T00:43:47;16.60;60.50
51476;DHT22;37554;50.362;7.568;2023-02-18T00:46:12;16.50;60.50
51476;DHT22;37554;50.362;7.568;2023-02-18T00:48:38;16.50;60.50
51476;DHT22;37554;50.362;7.568;2023-02-18T00:51:05;16.50;60.50
51476;DHT22;37554;50.362;7.568;2023-02-18T00:53:31;16.50;60.50
51476;DHT22;37554;50.362;7.568;2023-02-18T00:55:57;16.50;60.50
51476;DHT22;37554;50.362;7.568;2023-02-18T00:58:23;16.50;60.50
51476;DHT22;37554;50.362;7.568;2023-02-18T01:00:49;16.50;60.50
51476;DHT22;37554;50.362;7.568;2023-02-18T01:03:15;16.50;60.50
51476;DHT22;37554;50.362;7.568;2023-02-18T01:05:41;16.50;60.60
51476;DHT22;37554;50.362;7.568;2023-02-18T01:08:09;16.50;60.50
51476;DHT22;37554;50.362;7.568;2023-02-18T01:10:36;16.50;60.60
51476;DHT22;37554;50.362;7.568;2023-02-18T01:13:02;16.50;60.60
51476;DHT22;37554;50.362;7.568;2023-02-18T01:15:31;16.50;60.60
51476;DHT22;37554;50.362;7.568;2023-02-18T01:17:56;16.50;60.60
51476;DHT22;37554;50.362;7.568;2023-02-18T01:20:22;16.50;60.60
51476;DHT22;37554;50.362;7.568;2023-02-18T01:22:48;16.50;60.60
51476;DHT22;37554;50.362;7.568;2023-02-18T01:25:14;16.50;60.60
51476;DHT22;37554;50.362;7.568;2023-02-18T01:27:40;16.50;60.70
51476;DHT22;37554;50.362;7.568;2023-02-18T01:30:09;16.40;60.60
51476;DHT22;37554;50.362;7.568;2023-02-18T01:32:35;16.40;60.60
51476;DHT22;37554;50.362;7.568;2023-02-18T01:35:01;16.40;60.60
51476;DHT22;37554;50.362;7.568;2023-02-18T01:37:28;16.40;60.70
51476;DHT22;37554;50.362;7.568;2023-02-18T01:39:53;16.40;60.70
51476;DHT22;37554;50.362;7.568;2023-02-18T01:42:21;16.50;60.90
51476;DHT22;37554;50.362;7.568;2023-02-18T01:44:48;16.40;60.90
51476;DHT22;37554;50.362;7.568;2023-02-18T01:47:14;16.40;60.90
51476;DHT22;37554;50.362;7.568;2023-02-18T01:49:40;16.40;60.90
51476;DHT22;37554;50.362;7.568;2023-02-18T01:52:13;16.40;61.00
51476;DHT22;37554;50.362;7.568;2023-02-18T01:54:42;16.40;61.10
51476;DHT22;37554;50.362;7.568;2023-02-18T01:57:20;16.40;61.20
51476;DHT22;37554;50.362;7.568;2023-02-18T01:59:59;16.40;61.20
51476;DHT22;37554;50.362;7.568;2023-02-18T02:02:27;16.40;61.40
51476;DHT22;37554;50.362;7.568;2023-02-18T02:04:54;16.40;61.30
51476;DHT22;37554;50.362;7.568;2023-02-18T02:07:22;16.40;61.40
51476;DHT22;37554;50.362;7.568;2023-02-18T02:09:50;16.40;61.40
51476;DHT22;37554;50.362;7.568;2023-02-18T02:32:05;16.30;62.00
51476;DHT22;37554;50.362;7.568;2023-02-18T02:40:41;16.30;61.90
51476;DHT22;37554;50.362;7.568;2023-02-18T02:43:26;16.30;62.00
51476;DHT22;37554;50.362;7.568;2023-02-18T02:46:02;16.30;61.90
51476;DHT22;37554;50.362;7.568;2023-02-18T02:48:54;16.30;61.90
51476;DHT22;37554;50.362;7.568;2023-02-18T02:51:31;16.30;62.00
51476;DHT22;37554;50.362;7.568;2023-02-18T02:54:17;16.30;61.90
51476;DHT22;37554;50.362;7.568;2023-02-18T02:56:43;16.30;62.10
51476;DHT22;37554;50.362;7.568;2023-02-18T02:59:22;16.30;61.90
51476;DHT22;37554;50.362;7.568;2023-02-18T03:12:50;16.20;61.90
51476;DHT22;37554;50.362;7.568;2023-02-18T03:17:54;16.20;62.00
51476;DHT22;37554;50.362;7.568;2023-02-18T03:20:26;16.20;62.00
51476;DHT22;37554;50.362;7.568;2023-02-18T03:22:53;16.20;62.00
51476;DHT22;37554;50.362;7.568;2023-02-18T03:25:20;16.20;62.10
51476;DHT22;37554;50.362;7.568;2023-02-18T03:27:58;16.20;62.10
51476;DHT22;37554;50.362;7.568;2023-02-18T03:30:34;16.20;62.20
51476;DHT22;37554;50.362;7.568;2023-02-18T03:33:04;16.20;62.10
51476;DHT22;37554;50.362;7.568;2023-02-18T03:35:31;16.20;62.10
51476;DHT22;37554;50.362;7.568;2023-02-18T03:38:08;16.20;62.20
51476;DHT22;37554;50.362;7.568;2023-02-18T03:40:37;16.20;62.30
51476;DHT22;37554;50.362;7.568;2023-02-18T03:43:03;16.20;62.20
51476;DHT22;37554;50.362;7.568;2023-02-18T03:45:28;16.20;62.20
51476;DHT22;37554;50.362;7.568;2023-02-18T03:47:54;16.20;62.30
51476;DHT22;37554;50.362;7.568;2023-02-18T03:50:20;16.20;62.30
51476;DHT22;37554;50.362;7.568;2023-02-18T03:52:45;16.10;62.30
51476;DHT22;37554;50.362;7.568;2023-02-18T03:55:11;16.10;62.20
51476;DHT22;37554;50.362;7.568;2023-02-18T03:57:37;16.10;62.20
51476;DHT22;37554;50.362;7.568;2023-02-18T04:00:03;16.20;62.30
51476;DHT22;37554;50.362;7.568;2023-02-18T04:02:31;16.10;62.20
51476;DHT22;37554;50.362;7.568;2023-02-18T04:04:57;16.10;62.30
51476;DHT22;37554;50.362;7.568;2023-02-18T04:07:22;16.10;62.30
51476;DHT22;37554;50.362;7.568;2023-02-18T04:09:48;16.10;62.30
51476;DHT22;37554;50.362;7.568;2023-02-18T04:12:14;16.10;62.40
51476;DHT22;37554;50.362;7.568;2023-02-18T04:14:39;16.10;62.30
51476;DHT22;37554;50.362;7.568;2023-02-18T04:17:05;16.10;62.40
51476;DHT22;37554;50.362;7.568;2023-02-18T04:19:31;16.10;62.30
51476;DHT22;37554;50.362;7.568;2023-02-18T04:21:56;16.10;62.40
51476;DHT22;37554;50.362;7.568;2023-02-18T04:24:22;16.10;62.40
51476;DHT22;37554;50.362;7.568;2023-02-18T04:26:47;16.10;62.40
51476;DHT22;37554;50.362;7.568;2023-02-18T04:29:13;16.10;62.40
51476;DHT22;37554;50.362;7.568;2023-02-18T04:31:39;16.10;62.40
51476;DHT22;37554;50.362;7.568;2023-02-18T04:34:04;16.10;62.40
51476;DHT22;37554;50.362;7.568;2023-02-18T04:36:30;16.10;62.40
51476;DHT22;37554;50.362;7.568;2023-02-18T04:38:56;16.00;62.40
51476;DHT22;37554;50.362;7.568;2023-02-18T04:41:21;16.00;62.50
51476;DHT22;37554;50.362;7.568;2023-02-18T04:43:47;16.00;62.40
51476;DHT22;37554;50.362;7.568;2023-02-18T04:46:12;16.00;62.40
51476;DHT22;37554;50.362;7.568;2023-02-18T04:48:38;16.00;62.30
51476;DHT22;37554;50.362;7.568;2023-02-18T04:51:04;16.00;62.30
51476;DHT22;37554;50.362;7.568;2023-02-18T04:53:30;16.00;62.40
51476;DHT22;37554;50.362;7.568;2023-02-18T04:55:55;16.00;62.40
51476;DHT22;37554;50.362;7.568;2023-02-18T04:58:21;16.00;62.40
51476;DHT22;37554;50.362;7.568;2023-02-18T05:00:47;16.00;62.30
51476;DHT22;37554;50.362;7.568;2023-02-18T05:03:13;16.00;62.40
51476;DHT22;37554;50.362;7.568;2023-02-18T05:05:39;16.00;62.50
51476;DHT22;37554;50.362;7.568;2023-02-18T05:08:06;15.90;62.50
51476;DHT22;37554;50.362;7.568;2023-02-18T05:10:33;15.90;62.50
51476;DHT22;37554;50.362;7.568;2023-02-18T05:12:58;15.90;62.60
51476;DHT22;37554;50.362;7.568;2023-02-18T05:15:24;15.90;62.60
51476;DHT22;37554;50.362;7.568;2023-02-18T05:17:50;15.90;62.70
51476;DHT22;37554;50.362;7.568;2023-02-18T05:20:16;15.90;62.70
51476;DHT22;37554;50.362;7.568;2023-02-18T05:22:41;15.90;62.70
51476;DHT22;37554;50.362;7.568;2023-02-18T05:25:07;15.80;62.70
51476;DHT22;37554;50.362;7.568;2023-02-18T05:27:33;15.80;62.70
51476;DHT22;37554;50.362;7.568;2023-02-18T05:29:59;15.80;62.70
51476;DHT22;37554;50.362;7.568;2023-02-18T05:32:24;15.80;62.90
51476;DHT22;37554;50.362;7.568;2023-02-18T05:34:50;15.80;62.80
51476;DHT22;37554;50.362;7.568;2023-02-18T05:37:15;15.80;62.90
51476;DHT22;37554;50.362;7.568;2023-02-18T05:39:43;15.80;62.80
51476;DHT22;37554;50.362;7.568;2023-02-18T05:42:09;15.80;62.80
51476;DHT22;37554;50.362;7.568;2023-02-18T05:44:35;15.80;62.80
51476;DHT22;37554;50.362;7.568;2023-02-18T05:47:04;15.80;62.80
51476;DHT22;37554;50.362;7.568;2023-02-18T05:49:31;15.80;62.90
51476;DHT22;37554;50.362;7.568;2023-02-18T05:51:57;15.80;62.90
51476;DHT22;37554;50.362;7.568;2023-02-18T05:54:23;15.80;62.80
51476;DHT22;37554;50.362;7.568;2023-02-18T05:56:49;15.80;62.80
51476;DHT22;37554;50.362;7.568;2023-02-18T05:59:14;15.70;62.70
51476;DHT22;37554;50.362;7.568;2023-02-18T06:01:40;15.80;62.80
51476;DHT22;37554;50.362;7.568;2023-02-18T06:04:06;15.70;62.70
51476;DHT22;37554;50.362;7.568;2023-02-18T06:06:32;15.70;62.80
51476;DHT22;37554;50.362;7.568;2023-02-18T06:08:58;15.70;62.70
51476;DHT22;37554;50.362;7.568;2023-02-18T06:11:23;15.70;62.70
51476;DHT22;37554;50.362;7.568;2023-02-18T06:13:49;15.70;62.80
51476;DHT22;37554;50.362;7.568;2023-02-18T06:16:15;15.70;62.80
51476;DHT22;37554;50.362;7.568;2023-02-18T06:18:40;15.70;62.70
51476;DHT22;37554;50.362;7.568;2023-02-18T06:21:06;15.70;62.70
51476;DHT22;37554;50.362;7.568;2023-02-18T06:23:31;15.70;62.80
51476;DHT22;37554;50.362;7.568;2023-02-18T06:25:57;15.60;62.70
51476;DHT22;37554;50.362;7.568;2023-02-18T06:28:23;15.60;62.70
51476;DHT22;37554;50.362;7.568;2023-02-18T06:30:49;15.60;62.70
51476;DHT22;37554;50.362;7.568;2023-02-18T06:33:14;15.60;62.70
51476;DHT22;37554;50.362;7.568;2023-02-18T06:35:40;15.60;62.70
51476;DHT22;37554;50.362;7.568;2023-02-18T06:38:06;15.60;62.70
51476;DHT22;37554;50.362;7.568;2023-02-18T06:40:32;15.60;62.70
51476;DHT22;37554;50.362;7.568;2023-02-18T06:42:57;15.60;62.60
51476;DHT22;37554;50.362;7.568;2023-02-18T06:45:23;15.60;62.60
51476;DHT22;37554;50.362;7.568;2023-02-18T06:47:48;15.60;62.70
51476;DHT22;37554;50.362;7.568;2023-02-18T06:50:14;15.60;62.70
51476;DHT22;37554;50.362;7.568;2023-02-18T06:52:40;15.60;62.60
51476;DHT22;37554;50.362;7.568;2023-02-18T06:55:07;15.60;62.60
51476;DHT22;37554;50.362;7.568;2023-02-18T06:57:34;15.60;62.50
51476;DHT22;37554;50.362;7.568;2023-02-18T06:59:59;15.60;62.50
51476;DHT22;37554;50.362;7.568;2023-02-18T07:02:26;15.60;62.50
51476;DHT22;37554;50.362;7.568;2023-02-18T07:04:51;15.60;62.40
51476;DHT22;37554;50.362;7.568;2023-02-18T07:07:17;15.60;62.30
51476;DHT22;37554;50.362;7.568;2023-02-18T07:09:43;15.70;62.30
51476;DHT22;37554;50.362;7.568;2023-02-18T07:12:09;15.70;62.20
51476;DHT22;37554;50.362;7.568;2023-02-18T07:14:34;15.70;62.20
51476;DHT22;37554;50.362;7.568;2023-02-18T07:17:00;15.70;62.20
51476;DHT22;37554;50.362;7.568;2023-02-18T07:19:26;15.70;62.20
51476;DHT22;37554;50.362;7.568;2023-02-18T07:21:51;15.70;62.20
51476;DHT22;37554;50.362;7.568;2023-02-18T07:24:18;15.70;62.10
51476;DHT22;37554;50.362;7.568;2023-02-18T07:26:44;15.70;62.10
51476;DHT22;37554;50.362;7.568;2023-02-18T07:29:10;15.80;62.10
51476;DHT22;37554;50.362;7.568;2023-02-18T07:31:35;15.80;62.00
51476;DHT22;37554;50.362;7.568;2023-02-18T07:34:03;15.80;61.90
51476;DHT22;37554;50.362;7.568;2023-02-18T07:36:28;15.80;61.80
51476;DHT22;37554;50.362;7.568;2023-02-18T07:38:54;15.80;61.80
51476;DHT22;37554;50.362;7.568;2023-02-18T07:41:21;15.90;61.80
51476;DHT22;37554;50.362;7.568;2023-02-18T07:43:48;15.90;61.70
51476;DHT22;37554;50.362;7.568;2023-02-18T07:46:14;15.90;61.60
51476;DHT22;37554;50.362;7.568;2023-02-18T07:48:39;15.90;61.60
51476;DHT22;37554;50.362;7.568;2023-02-18T07:51:07;15.90;61.50
51476;DHT22;37554;50.362;7.568;2023-02-18T07:53:33;15.90;61.50
51476;DHT22;37554;50.362;7.568;2023-02-18T07:55:59;15.90;61.40
51476;DHT22;37554;50.362;7.568;2023-02-18T07:58:27;15.90;61.40
51476;DHT22;37554;50.362;7.568;2023-02-18T08:00:54;16.00;61.40
51476;DHT22;37554;50.362;7.568;2023-02-18T08:03:22;16.00;61.30
51476;DHT22;37554;50.362;7.568;2023-02-18T08:05:49;16.00;61.30
51476;DHT22;37554;50.362;7.568;2023-02-18T08:08:17;16.00;61.20
51476;DHT22;37554;50.362;7.568;2023-02-18T08:10:45;16.00;61.20
51476;DHT22;37554;50.362;7.568;2023-02-18T08:13:11;16.00;61.10
51476;DHT22;37554;50.362;7.568;2023-02-18T08:15:38;16.00;61.10
51476;DHT22;37554;50.362;7.568;2023-02-18T08:18:05;16.10;61.00
51476;DHT22;37554;50.362;7.568;2023-02-18T08:20:35;16.10;61.00
51476;DHT22;37554;50.362;7.568;2023-02-18T08:23:01;16.00;60.60
51476;DHT22;37554;50.362;7.568;2023-02-18T08:25:27;15.80;60.70
51476;DHT22;37554;50.362;7.568;2023-02-18T08:27:52;15.40;61.10
51476;DHT22;37554;50.362;7.568;2023-02-18T08:30:18;15.20;61.70
51476;DHT22;37554;50.362;7.568;2023-02-18T08:32:44;15.20;61.90
51476;DHT22;37554;50.362;7.568;2023-02-18T08:35:10;15.40;61.70
51476;DHT22;37554;50.362;7.568;2023-02-18T08:37:36;15.60;61.30
51476;DHT22;37554;50.362;7.568;2023-02-18T08:40:03;15.80;61.00
51476;DHT22;37554;50.362;7.568;2023-02-18T08:42:29;15.90;60.60
51476;DHT22;37554;50.362;7.568;2023-02-18T08:44:55;16.00;60.50
51476;DHT22;37554;50.362;7.568;2023-02-18T08:47:21;16.00;60.40
51476;DHT22;37554;50.362;7.568;2023-02-18T08:49:46;16.10;60.30
51476;DHT22;37554;50.362;7.568;2023-02-18T08:52:12;16.10;60.10
51476;DHT22;37554;50.362;7.568;2023-02-18T08:54:38;16.20;60.10
51476;DHT22;37554;50.362;7.568;2023-02-18T08:57:04;16.20;60.00
51476;DHT22;37554;50.362;7.568;2023-02-18T08:59:29;16.20;59.90
51476;DHT22;37554;50.362;7.568;2023-02-18T09:01:55;16.20;59.90
51476;DHT22;37554;50.362;7.568;2023-02-18T09:04:21;16.20;59.90
51476;DHT22;37554;50.362;7.568;2023-02-18T09:06:48;16.20;60.00
51476;DHT22;37554;50.362;7.568;2023-02-18T09:09:18;16.20;59.90
51476;DHT22;37554;50.362;7.568;2023-02-18T09:11:44;16.30;60.00
51476;DHT22;37554;50.362;7.568;2023-02-18T09:14:13;16.30;59.80
51476;DHT22;37554;50.362;7.568;2023-02-18T09:16:40;16.40;59.80
51476;DHT22;37554;50.362;7.568;2023-02-18T09:19:06;16.40;59.70
51476;DHT22;37554;50.362;7.568;2023-02-18T09:21:32;16.40;59.70
51476;DHT22;37554;50.362;7.568;2023-02-18T09:23:58;16.40;59.70
51476;DHT22;37554;50.362;7.568;2023-02-18T09:26:24;16.50;59.50
51476;DHT22;37554;50.362;7.568;2023-02-18T09:28:53;16.50;60.10
51476;DHT22;37554;50.362;7.568;2023-02-18T09:31:21;16.50;59.30
51476;DHT22;37554;50.362;7.568;2023-02-18T09:33:57;16.60;59.30
51476;DHT22;37554;50.362;7.568;2023-02-18T09:36:23;16.60;59.10
51476;DHT22;37554;50.362;7.568;2023-02-18T09:38:49;16.60;59.10
51476;DHT22;37554;50.362;7.568;2023-02-18T09:44:19;16.70;58.90
51476;DHT22;37554;50.362;7.568;2023-02-18T09:46:54;16.70;59.30
51476;DHT22;37554;50.362;7.568;2023-02-18T09:49:30;16.70;58.90
51476;DHT22;37554;50.362;7.568;2023-02-18T09:52:16;16.70;58.90
51476;DHT22;37554;50.362;7.568;2023-02-18T09:54:42;16.70;59.00
51476;DHT22;37554;50.362;7.568;2023-02-18T09:59:58;16.60;58.80
51476;DHT22;37554;50.362;7.568;2023-02-18T10:02:26;16.60;58.70
51476;DHT22;37554;50.362;7.568;2023-02-18T10:04:53;16.60;58.50
51476;DHT22;37554;50.362;7.568;2023-02-18T10:07:34;16.70;58.50
51476;DHT22;37554;50.362;7.568;2023-02-18T10:12:52;16.70;58.30
51476;DHT22;37554;50.362;7.568;2023-02-18T10:15:23;16.70;58.30
51476;DHT22;37554;50.362;7.568;2023-02-18T10:17:52;16.70;58.30
51476;DHT22;37554;50.362;7.568;2023-02-18T10:20:25;16.70;58.20
51476;DHT22;37554;50.362;7.568;2023-02-18T10:22:54;16.70;58.00
51476;DHT22;37554;50.362;7.568;2023-02-18T10:25:22;16.70;57.90
51476;DHT22;37554;50.362;7.568;2023-02-18T10:27:51;16.70;57.90
51476;DHT22;37554;50.362;7.568;2023-02-18T10:30:23;16.70;57.80
51476;DHT22;37554;50.362;7.568;2023-02-18T10:32:57;16.80;57.60
51476;DHT22;37554;50.362;7.568;2023-02-18T10:35:33;16.80;57.60
51476;DHT22;37554;50.362;7.568;2023-02-18T10:45:48;17.00;57.10
51476;DHT22;37554;50.362;7.568;2023-02-18T10:48:58;17.00;56.90
51476;DHT22;37554;50.362;7.568;2023-02-18T10:51:28;17.00;56.70
51476;DHT22;37554;50.362;7.568;2023-02-18T10:53:56;17.10;56.80
51476;DHT22;37554;50.362;7.568;2023-02-18T10:56:40;17.20;56.60
51476;DHT22;37554;50.362;7.568;2023-02-18T11:01:39;17.20;56.40
51476;DHT22;37554;50.362;7.568;2023-02-18T11:04:17;17.20;56.40
51476;DHT22;37554;50.362;7.568;2023-02-18T11:06:47;17.10;56.30
51476;DHT22;37554;50.362;7.568;2023-02-18T11:12:09;17.20;56.30
51476;DHT22;37554;50.362;7.568;2023-02-18T11:14:43;17.20;56.40
51476;DHT22;37554;50.362;7.568;2023-02-18T11:17:21;17.20;56.30
51476;DHT22;37554;50.362;7.568;2023-02-18T11:19:56;17.20;56.30
51476;DHT22;37554;50.362;7.568;2023-02-18T11:22:27;17.20;56.20
51476;DHT22;37554;50.362;7.568;2023-02-18T11:24:55;17.20;56.00
51476;DHT22;37554;50.362;7.568;2023-02-18T11:27:30;17.40;56.00
51476;DHT22;37554;50.362;7.568;2023-02-18T11:30:22;17.40;55.80
51476;DHT22;37554;50.362;7.568;2023-02-18T11:32:59;17.50;55.70
51476;DHT22;37554;50.362;7.568;2023-02-18T11:35:28;17.50;55.70
51476;DHT22;37554;50.362;7.568;2023-02-18T11:37:58;17.50;55.70
51476;DHT22;37554;50.362;7.568;2023-02-18T11:40:31;17.50;55.70
51476;DHT22;37554;50.362;7.568;2023-02-18T11:43:02;17.60;55.50
51476;DHT22;37554;50.362;7.568;2023-02-18T11:45:29;17.70;55.10
51476;DHT22;37554;50.362;7.568;2023-02-18T11:48:02;17.70;55.30
51476;DHT22;37554;50.362;7.568;2023-02-18T11:50:32;17.80;55.90
51476;DHT22;37554;50.362;7.568;2023-02-18T11:52:59;17.80;55.00
51476;DHT22;37554;50.362;7.568;2023-02-18T11:55:27;17.80;55.00
51476;DHT22;37554;50.362;7.568;2023-02-18T11:57:59;17.90;55.00
51476;DHT22;37554;50.362;7.568;2023-02-18T12:00:43;17.90;54.90
51476;DHT22;37554;50.362;7.568;2023-02-18T12:03:37;17.90;54.70
51476;DHT22;37554;50.362;7.568;2023-02-18T12:06:14;18.00;54.70
51476;DHT22;37554;50.362;7.568;2023-02-18T12:08:54;18.00;54.70
51476;DHT22;37554;50.362;7.568;2023-02-18T12:11:30;18.00;54.70
51476;DHT22;37554;50.362;7.568;2023-02-18T12:13:57;18.10;54.80
51476;DHT22;37554;50.362;7.568;2023-02-18T12:21:44;18.30;54.60
51476;DHT22;37554;50.362;7.568;2023-02-18T12:24:39;18.20;54.60
51476;DHT22;37554;50.362;7.568;2023-02-18T12:27:47;18.20;54.90
51476;DHT22;37554;50.362;7.568;2023-02-18T12:35:51;18.10;55.40
51476;DHT22;37554;50.362;7.568;2023-02-18T12:38:41;18.10;55.60
51476;DHT22;37554;50.362;7.568;2023-02-18T12:47:07;18.00;56.10
51476;DHT22;37554;50.362;7.568;2023-02-18T13:09:46;17.90;57.00
51476;DHT22;37554;50.362;7.568;2023-02-18T13:12:21;17.90;57.10
51476;DHT22;37554;50.362;7.568;2023-02-18T13:17:49;17.90;57.10
51476;DHT22;37554;50.362;7.568;2023-02-18T13:22:59;17.80;57.30
51476;DHT22;37554;50.362;7.568;2023-02-18T13:25:26;17.80;57.40
51476;DHT22;37554;50.362;7.568;2023-02-18T13:31:18;17.70;57.80
51476;DHT22;37554;50.362;7.568;2023-02-18T13:34:07;17.60;57.90
51476;DHT22;37554;50.362;7.568;2023-02-18T13:37:25;17.60;58.10
51476;DHT22;37554;50.362;7.568;2023-02-18T13:39:29;17.60;58.10
51476;DHT22;37554;50.362;7.568;2023-02-18T13:55:39;17.50;58.50
51476;DHT22;37554;50.362;7.568;2023-02-18T13:58:15;17.50;58.50
51476;DHT22;37554;50.362;7.568;2023-02-18T14:06:29;17.50;58.80
51476;DHT22;37554;50.362;7.568;2023-02-18T14:09:43;17.50;58.90
51476;DHT22;37554;50.362;7.568;2023-02-18T14:14:46;17.50;58.70
51476;DHT22;37554;50.362;7.568;2023-02-18T14:22:46;17.50;58.90
51476;DHT22;37554;50.362;7.568;2023-02-18T14:25:20;17.40;59.00
51476;DHT22;37554;50.362;7.568;2023-02-18T14:27:51;17.50;59.00
51476;DHT22;37554;50.362;7.568;2023-02-18T14:32:44;17.50;59.00
51476;DHT22;37554;50.362;7.568;2023-02-18T14:35:27;17.50;59.10
51476;DHT22;37554;50.362;7.568;2023-02-18T14:51:34;17.40;59.20
51476;DHT22;37554;50.362;7.568;2023-02-18T14:54:12;17.30;59.10
51476;DHT22;37554;50.362;7.568;2023-02-18T14:59:40;17.40;59.10
51476;DHT22;37554;50.362;7.568;2023-02-18T15:02:22;17.40;59.10
51476;DHT22;37554;50.362;7.568;2023-02-18T15:04:49;17.50;59.00
51476;DHT22;37554;50.362;7.568;2023-02-18T15:07:20;17.50;59.00
51476;DHT22;37554;50.362;7.568;2023-02-18T15:09:49;17.50;59.00
51476;DHT22;37554;50.362;7.568;2023-02-18T15:12:19;17.40;58.90
51476;DHT22;37554;50.362;7.568;2023-02-18T15:14:48;17.40;58.90
51476;DHT22;37554;50.362;7.568;2023-02-18T15:17:18;17.50;58.90
51476;DHT22;37554;50.362;7.568;2023-02-18T15:19:56;17.50;59.00
51476;DHT22;37554;50.362;7.568;2023-02-18T15:22:25;17.50;59.00
51476;DHT22;37554;50.362;7.568;2023-02-18T15:24:53;17.40;58.90
51476;DHT22;37554;50.362;7.568;2023-02-18T15:27:27;17.40;59.00
51476;DHT22;37554;50.362;7.568;2023-02-18T15:32:39;17.70;58.50
51476;DHT22;37554;50.362;7.568;2023-02-18T15:35:17;17.70;58.30
51476;DHT22;37554;50.362;7.568;2023-02-18T15:37:45;17.60;58.30
51476;DHT22;37554;50.362;7.568;2023-02-18T15:40:15;17.60;58.50
51476;DHT22;37554;50.362;7.568;2023-02-18T15:42:41;17.50;58.70
51476;DHT22;37554;50.362;7.568;2023-02-18T15:45:19;17.40;58.80
51476;DHT22;37554;50.362;7.568;2023-02-18T15:47:52;17.30;58.80
51476;DHT22;37554;50.362;7.568;2023-02-18T15:50:36;17.30;58.90
51476;DHT22;37554;50.362;7.568;2023-02-18T15:53:08;17.30;58.90
51476;DHT22;37554;50.362;7.568;2023-02-18T15:55:41;17.40;58.80
51476;DHT22;37554;50.362;7.568;2023-02-18T15:58:36;17.30;58.80
51476;DHT22;37554;50.362;7.568;2023-02-18T16:01:05;17.30;58.80
51476;DHT22;37554;50.362;7.568;2023-02-18T16:06:22;17.30;58.90
51476;DHT22;37554;50.362;7.568;2023-02-18T16:09:35;17.20;59.00
51476;DHT22;37554;50.362;7.568;2023-02-18T16:12:03;17.10;59.00
51476;DHT22;37554;50.362;7.568;2023-02-18T16:14:46;17.10;59.20
51476;DHT22;37554;50.362;7.568;2023-02-18T16:17:22;17.10;59.30
51476;DHT22;37554;50.362;7.568;2023-02-18T16:19:57;17.00;59.30
51476;DHT22;37554;50.362;7.568;2023-02-18T16:25:09;17.00;59.40
51476;DHT22;37554;50.362;7.568;2023-02-18T16:30:20;16.90;59.40
51476;DHT22;37554;50.362;7.568;2023-02-18T16:32:47;16.90;59.50
51476;DHT22;37554;50.362;7.568;2023-02-18T16:35:13;16.90;59.50
51476;DHT22;37554;50.362;7.568;2023-02-18T16:37:59;16.80;59.60
51476;DHT22;37554;50.362;7.568;2023-02-18T16:40:32;16.80;59.60
51476;DHT22;37554;50.362;7.568;2023-02-18T16:43:00;16.80;59.70
51476;DHT22;37554;50.362;7.568;2023-02-18T16:45:41;16.80;59.70
51476;DHT22;37554;50.362;7.568;2023-02-18T16:48:39;16.70;59.70
51476;DHT22;37554;50.362;7.568;2023-02-18T16:53:53;16.70;59.80
51476;DHT22;37554;50.362;7.568;2023-02-18T16:56:26;16.60;59.80
51476;DHT22;37554;50.362;7.568;2023-02-18T16:58:52;16.60;59.80
51476;DHT22;37554;50.362;7.568;2023-02-18T17:03:46;16.50;60.00
51476;DHT22;37554;50.362;7.568;2023-02-18T17:06:12;16.50;60.00
51476;DHT22;37554;50.362;7.568;2023-02-18T17:08:38;16.50;60.00
51476;DHT22;37554;50.362;7.568;2023-02-18T17:11:04;16.50;60.10
51476;DHT22;37554;50.362;7.568;2023-02-18T17:13:30;16.50;60.00
51476;DHT22;37554;50.362;7.568;2023-02-18T17:15:57;16.40;60.00
51476;DHT22;37554;50.362;7.568;2023-02-18T17:18:24;16.50;60.20
51476;DHT22;37554;50.362;7.568;2023-02-18T17:20:50;16.40;60.20
51476;DHT22;37554;50.362;7.568;2023-02-18T17:23:19;16.40;60.30
51476;DHT22;37554;50.362;7.568;2023-02-18T17:25:52;16.40;60.30
51476;DHT22;37554;50.362;7.568;2023-02-18T17:28:18;16.30;60.30
51476;DHT22;37554;50.362;7.568;2023-02-18T17:30:51;16.40;60.30
51476;DHT22;37554;50.362;7.568;2023-02-18T17:33:18;16.30;60.30
51476;DHT22;37554;50.362;7.568;2023-02-18T17:35:44;16.30;60.30
51476;DHT22;37554;50.362;7.568;2023-02-18T17:38:14;16.30;60.30
51476;DHT22;37554;50.362;7.568;2023-02-18T17:40:41;16.30;60.30
51476;DHT22;37554;50.362;7.568;2023-02-18T17:43:11;16.30;60.30
51476;DHT22;37554;50.362;7.568;2023-02-18T17:45:51;16.30;60.40
51476;DHT22;37554;50.362;7.568;2023-02-18T17:48:17;16.30;60.50
51476;DHT22;37554;50.362;7.568;2023-02-18T17:50:43;16.20;60.40
51476;DHT22;37554;50.362;7.568;2023-02-18T17:53:12;16.20;60.40
51476;DHT22;37554;50.362;7.568;2023-02-18T17:55:39;16.20;60.60
51476;DHT22;37554;50.362;7.568;2023-02-18T17:58:05;16.20;61.20
51476;DHT22;37554;50.362;7.568;2023-02-18T18:00:39;16.10;60.60
51476;DHT22;37554;50.362;7.568;2023-02-18T18:03:05;16.20;60.70
51476;DHT22;37554;50.362;7.568;2023-02-18T18:05:32;16.10;60.70
51476;DHT22;37554;50.362;7.568;2023-02-18T18:07:59;16.10;60.70
51476;DHT22;37554;50.362;7.568;2023-02-18T18:10:27;16.10;60.70
51476;DHT22;37554;50.362;7.568;2023-02-18T18:12:59;16.10;60.70
51476;DHT22;37554;50.362;7.568;2023-02-18T18:15:28;16.10;60.80
51476;DHT22;37554;50.362;7.568;2023-02-18T18:17:55;16.10;60.90
51476;DHT22;37554;50.362;7.568;2023-02-18T18:20:23;16.10;60.90
51476;DHT22;37554;50.362;7.568;2023-02-18T18:22:50;16.10;60.90
51476;DHT22;37554;50.362;7.568;2023-02-18T18:25:25;16.10;61.00
51476;DHT22;37554;50.362;7.568;2023-02-18T18:27:51;16.00;60.90
51476;DHT22;37554;50.362;7.568;2023-02-18T18:30:22;16.00;61.00
51476;DHT22;37554;50.362;7.568;2023-02-18T18:32:48;16.00;61.00
51476;DHT22;37554;50.362;7.568;2023-02-18T18:35:34;16.00;61.10